This is the latest recevied weather packets stored in our database for station/object KR4CWL-13. If no packets are shown the sender has not sent any weather packets the latest 10 day(s).
| Time | Temp. | Humidity | Pressure | Rain* | Wind** | Luminosity | Snow |
|---|---|---|---|---|---|---|---|
| 1777570429 | 22.22° C | 54% | 1002 hPa | 0 mm | - | - | - |
| 1777569829 | 22.78° C | 54% | 1002.4 hPa | 0 mm | - | - | - |
| 1777569229 | 22.78° C | 56% | 1002.4 hPa | 0 mm | - | - | - |
| 1777568629 | 22.78° C | 56% | 1002.4 hPa | 0 mm | - | - | - |
| 1777568029 | 22.22° C | 58% | 1002.4 hPa | 0 mm | - | - | - |
| 1777567428 | 22.22° C | 59% | 1002.7 hPa | 0 mm | - | - | - |
| 1777566828 | 22.22° C | 62% | 1003 hPa | 0 mm | - | - | - |
| 1777566228 | 21.67° C | 64% | 1003 hPa | 0 mm | - | - | - |
| 1777565628 | 21.11° C | 67% | 1003 hPa | 0 mm | - | - | - |
| 1777565028 | 21.11° C | 67% | 1003 hPa | 0 mm | - | - | - |
| 1777564428 | 18.89° C | 73% | 1003.4 hPa | 0 mm | - | - | - |
| 1777563828 | 17.78° C | 81% | 1003.4 hPa | 0 mm | - | - | - |
| 1777563228 | 17.78° C | 83% | 1003.4 hPa | 0 mm | - | - | - |
| 1777562628 | 16.67° C | 89% | 1003.4 hPa | 0 mm | - | - | - |
| 1777562028 | 17.22° C | 90% | 1003.4 hPa | 0 mm | - | - | - |
| 1777561428 | 16.67° C | 89% | 1003.7 hPa | 0 mm | - | - | - |
| 1777560828 | 16.67° C | 89% | 1003.7 hPa | 0 mm | - | - | - |
| 1777560228 | 16.67° C | 87% | 1003.7 hPa | 0 mm | - | - | - |
| 1777559628 | 16.67° C | 89% | 1003.4 hPa | 0 mm | - | - | - |
| 1777559028 | 16.67° C | 93% | 1003.7 hPa | 0 mm | - | - | - |
| 1777558428 | 16.67° C | 93% | 1003.7 hPa | 0 mm | - | - | - |
| 1777557828 | 16.11° C | 93% | 1004.1 hPa | 0 mm | - | - | - |
| 1777557228 | 16.11° C | 95% | 1004.1 hPa | 0 mm | - | - | - |
| 1777556628 | 16.11° C | 93% | 1004.1 hPa | 0 mm | - | - | - |
| 1777556028 | 16.11° C | 91% | 1004.1 hPa | 0 mm | - | - | - |
* Rain since midnight (hover to see other rain measurements)
** Current wind speed in m/s (hover to see current wind gust speed)